createdAt,value
2023-03-20T00:01:18.647Z,5.75
2023-03-20T00:03:45.979Z,5.00
2023-03-20T00:06:25.506Z,7.25
2023-03-20T00:08:54.375Z,7.00
2023-03-20T00:11:27.457Z,4.00
2023-03-20T00:14:06.725Z,6.75
2023-03-20T00:16:42.030Z,10.25
2023-03-20T00:19:25.813Z,9.00
2023-03-20T00:21:54.044Z,6.75
2023-03-20T00:24:21.670Z,10.00
2023-03-20T00:26:50.549Z,12.00
2023-03-20T00:29:29.127Z,6.75
2023-03-20T00:31:56.161Z,6.25
2023-03-20T00:34:26.063Z,11.75
2023-03-20T00:36:53.992Z,8.50
2023-03-20T00:39:21.081Z,8.00
2023-03-20T00:41:50.261Z,8.75
2023-03-20T00:44:34.680Z,10.50
2023-03-20T00:47:13.241Z,5.75
2023-03-20T00:49:40.183Z,3.00
2023-03-20T00:52:07.477Z,8.50
2023-03-20T00:54:34.404Z,11.00
2023-03-20T00:57:06.587Z,9.75
2023-03-20T00:59:37.863Z,5.00
2023-03-20T01:02:05.225Z,10.00
2023-03-20T01:04:42.796Z,14.00
2023-03-20T01:07:14.856Z,11.25
2023-03-20T01:09:41.974Z,7.25
2023-03-20T01:12:12.394Z,6.00
2023-03-20T01:14:41.866Z,5.00
2023-03-20T01:17:20.602Z,9.25
2023-03-20T01:19:47.738Z,4.50
2023-03-20T01:22:14.686Z,4.00
2023-03-20T01:24:41.667Z,3.00
2023-03-20T01:27:17.287Z,5.00
2023-03-20T01:29:45.097Z,10.00
2023-03-20T01:32:15.610Z,13.50
2023-03-20T01:34:45.914Z,13.75
2023-03-20T01:37:17.753Z,8.25
2023-03-20T01:39:45.973Z,9.00
2023-03-20T01:42:16.368Z,10.00
2023-03-20T01:44:44.482Z,13.75
2023-03-20T01:47:20.901Z,8.75
2023-03-20T01:50:24.521Z,3.00
2023-03-20T01:53:11.500Z,2.00
2023-03-20T01:55:46.327Z,7.25
2023-03-20T01:58:20.061Z,9.50
2023-03-20T02:00:48.193Z,4.50
2023-03-20T02:03:18.587Z,5.25
2023-03-20T02:06:05.893Z,4.00
2023-03-20T02:08:53.895Z,10.00
2023-03-20T02:11:24.479Z,9.00
2023-03-20T02:13:54.355Z,4.75
2023-03-20T02:16:21.947Z,8.50
2023-03-20T02:18:56.657Z,4.25
2023-03-20T02:21:33.160Z,2.50
2023-03-20T02:24:34.339Z,3.25
2023-03-20T02:27:08.590Z,7.50
2023-03-20T02:30:00.178Z,3.50
2023-03-20T02:33:14.718Z,9.75
2023-03-20T02:35:59.969Z,4.75
2023-03-20T02:38:29.990Z,4.25
2023-03-20T02:41:16.123Z,3.00
2023-03-20T02:44:00.179Z,4.75
2023-03-20T02:47:23.555Z,5.00
2023-03-20T02:49:56.109Z,7.00
2023-03-20T02:53:03.883Z,4.75
2023-03-20T02:55:47.668Z,7.00
2023-03-20T02:58:36.110Z,11.75
2023-03-20T03:01:18.081Z,11.75
2023-03-20T03:03:52.673Z,7.50
2023-03-20T03:06:35.933Z,3.50
2023-03-20T03:09:13.923Z,4.50
2023-03-20T03:11:49.577Z,5.00
2023-03-20T03:14:27.155Z,4.00
2023-03-20T03:16:56.949Z,5.00
2023-03-20T03:19:28.240Z,6.00
2023-03-20T03:21:55.485Z,9.25
2023-03-20T03:24:41.827Z,7.00
2023-03-20T03:27:35.155Z,8.00
2023-03-20T03:30:16.187Z,7.00
2023-03-20T03:32:50.803Z,3.00
2023-03-20T03:35:21.387Z,4.00
2023-03-20T03:38:00.372Z,4.75
2023-03-20T03:40:46.594Z,3.00
2023-03-20T03:43:40.762Z,11.25
2023-03-20T03:46:25.226Z,6.50
2023-03-20T03:48:57.508Z,3.00
2023-03-20T03:51:29.386Z,3.00
2023-03-20T03:54:29.977Z,7.00
2023-03-20T03:57:26.196Z,5.00
2023-03-20T03:59:54.807Z,4.25
2023-03-20T04:02:22.863Z,11.50
2023-03-20T04:04:53.736Z,7.00
2023-03-20T04:07:21.044Z,5.00
2023-03-20T04:09:49.158Z,4.25
2023-03-20T04:12:37.552Z,10.00
2023-03-20T04:15:07.205Z,12.00
2023-03-20T04:17:34.427Z,10.00
2023-03-20T04:20:01.896Z,6.75
2023-03-20T04:22:28.717Z,12.25
2023-03-20T04:24:59.502Z,11.00
2023-03-20T04:27:28.749Z,10.00
2023-03-20T04:29:56.224Z,10.25
2023-03-20T04:32:41.459Z,8.00
2023-03-20T04:35:20.085Z,10.50
2023-03-20T04:37:52.656Z,11.00
2023-03-20T04:40:20.103Z,9.00
2023-03-20T04:42:47.561Z,7.75
2023-03-20T04:45:14.569Z,5.25
2023-03-20T04:47:42.545Z,10.00
2023-03-20T04:50:10.375Z,8.00
2023-03-20T04:52:37.429Z,13.25
2023-03-20T04:55:04.874Z,11.00
2023-03-20T04:57:31.752Z,10.00
2023-03-20T04:59:58.993Z,14.00
2023-03-20T05:02:26.091Z,12.00
2023-03-20T05:04:53.703Z,13.00
2023-03-20T05:07:20.624Z,11.00
2023-03-20T05:09:57.908Z,16.00
2023-03-20T05:12:25.823Z,14.00
2023-03-20T05:15:19.022Z,15.00
2023-03-20T05:18:12.342Z,14.00
2023-03-20T05:20:53.629Z,16.75
2023-03-20T05:23:28.770Z,16.00
2023-03-20T05:26:14.198Z,13.50
2023-03-20T05:28:59.756Z,15.00
2023-03-20T05:31:58.786Z,16.00
2023-03-20T05:34:46.040Z,14.50
2023-03-20T05:37:23.740Z,12.00
2023-03-20T05:40:15.872Z,12.00
2023-03-20T05:43:10.044Z,11.00
2023-03-20T05:45:51.427Z,13.00
2023-03-20T05:48:32.724Z,11.25
2023-03-20T05:51:18.261Z,12.00
2023-03-20T05:53:53.657Z,15.50
2023-03-20T05:57:01.463Z,14.25
2023-03-20T05:59:37.036Z,12.00
2023-03-20T06:02:35.580Z,9.00
2023-03-20T06:05:12.791Z,9.50
2023-03-20T06:07:46.061Z,16.75
2023-03-20T06:10:15.280Z,14.25
2023-03-20T06:12:42.698Z,8.75
2023-03-20T06:15:10.280Z,15.50
2023-03-20T06:17:45.303Z,17.25
2023-03-20T06:20:14.391Z,13.00
2023-03-20T06:22:41.330Z,18.00
2023-03-20T06:25:08.720Z,19.75
2023-03-20T06:27:40.068Z,16.00
2023-03-20T06:30:07.604Z,12.50
2023-03-20T06:32:36.512Z,11.00
2023-03-20T06:35:08.968Z,10.00
2023-03-20T06:37:45.184Z,8.00
2023-03-20T06:40:20.017Z,8.00
2023-03-20T06:42:47.571Z,10.00
2023-03-20T06:45:16.138Z,15.50
2023-03-20T06:48:03.306Z,19.75
2023-03-20T06:50:32.933Z,20.00
2023-03-20T06:53:02.411Z,19.50
2023-03-20T06:55:39.106Z,12.25
2023-03-20T06:58:06.196Z,14.25
2023-03-20T07:00:38.181Z,12.25
2023-03-20T07:03:08.955Z,16.50
2023-03-20T07:05:37.907Z,18.50
2023-03-20T07:08:08.232Z,14.25
2023-03-20T07:10:39.653Z,12.00
2023-03-20T07:13:08.500Z,10.00
2023-03-20T07:15:39.311Z,10.00
2023-03-20T07:18:08.224Z,15.25
2023-03-20T07:20:37.115Z,14.50
2023-03-20T07:23:07.575Z,14.75
2023-03-20T07:25:42.966Z,17.00
2023-03-20T07:28:15.602Z,18.00
2023-03-20T07:30:49.354Z,18.50
2023-03-20T07:33:19.951Z,18.00
2023-03-20T07:35:47.413Z,10.50
2023-03-20T07:38:14.331Z,11.50
2023-03-20T07:40:54.075Z,13.00
2023-03-20T07:43:22.158Z,14.00
2023-03-20T07:46:02.812Z,13.00
2023-03-20T07:48:30.117Z,12.00
2023-03-20T07:50:57.190Z,18.50
2023-03-20T07:53:24.284Z,15.00
2023-03-20T07:55:51.291Z,13.25
2023-03-20T07:58:20.686Z,13.50
2023-03-20T08:00:47.610Z,12.00
2023-03-20T08:03:14.623Z,18.50
2023-03-20T08:05:41.602Z,17.00
2023-03-20T08:08:08.809Z,19.25
2023-03-20T08:10:35.883Z,14.75
2023-03-20T08:13:05.304Z,12.00
2023-03-20T08:15:35.200Z,12.00
2023-03-20T08:18:08.485Z,15.50
2023-03-20T08:20:38.089Z,17.00
2023-03-20T08:23:04.932Z,19.00
2023-03-20T08:25:31.996Z,14.50
2023-03-20T08:28:02.259Z,10.00
2023-03-20T08:30:30.534Z,12.00
2023-03-20T08:32:57.510Z,10.00
2023-03-20T08:35:32.956Z,13.75
2023-03-20T08:38:01.769Z,20.50
2023-03-20T08:40:32.025Z,17.25
2023-03-20T08:42:59.431Z,20.00
2023-03-20T08:45:31.581Z,20.00
2023-03-20T08:48:01.630Z,23.00
2023-03-20T08:50:28.592Z,20.00
2023-03-20T08:52:57.955Z,22.00
2023-03-20T08:55:24.797Z,20.00
2023-03-20T08:57:51.787Z,24.00
2023-03-20T09:00:19.181Z,26.00
2023-03-20T09:02:46.218Z,21.50
2023-03-20T09:05:19.458Z,22.00
2023-03-20T09:07:46.544Z,22.00
2023-03-20T09:10:13.444Z,24.25
2023-03-20T09:12:40.541Z,29.50
2023-03-20T09:15:08.061Z,27.75
2023-03-20T09:17:37.981Z,29.25
2023-03-20T09:20:05.796Z,27.00
2023-03-20T09:22:33.192Z,28.00
2023-03-20T09:25:00.159Z,30.75
2023-03-20T09:27:27.098Z,30.75
2023-03-20T09:29:53.946Z,29.00
2023-03-20T09:32:20.829Z,29.50
2023-03-20T09:34:48.875Z,31.00
2023-03-20T09:37:15.785Z,31.00
2023-03-20T09:39:45.438Z,30.00
2023-03-20T09:42:21.383Z,28.00
2023-03-20T09:45:29.688Z,28.75
2023-03-20T09:48:19.457Z,28.50
2023-03-20T09:50:58.313Z,31.75
2023-03-20T09:53:37.528Z,31.00
2023-03-20T09:56:10.828Z,32.00
2023-03-20T09:58:39.843Z,32.00
2023-03-20T10:01:14.454Z,31.75
2023-03-20T10:03:58.462Z,31.00
2023-03-20T10:06:25.529Z,29.00
2023-03-20T10:08:52.839Z,30.75
2023-03-20T10:11:28.865Z,30.00
2023-03-20T10:14:22.011Z,30.50
2023-03-20T10:17:00.039Z,30.50
2023-03-20T10:19:43.547Z,30.50
2023-03-20T10:22:13.277Z,31.25
2023-03-20T10:24:52.522Z,29.00
2023-03-20T10:27:27.659Z,30.75
2023-03-20T10:30:33.584Z,30.00
2023-03-20T10:33:12.653Z,27.75
2023-03-20T10:35:49.762Z,29.00
2023-03-20T10:38:42.294Z,26.50
2023-03-20T10:41:15.144Z,30.00
2023-03-20T10:43:44.458Z,31.50
2023-03-20T10:46:22.981Z,28.00
2023-03-20T10:49:06.230Z,27.00
2023-03-20T10:51:52.819Z,26.50
2023-03-20T10:54:26.939Z,29.00
2023-03-20T10:56:56.873Z,27.00
2023-03-20T10:59:36.148Z,29.00
2023-03-20T11:02:08.277Z,28.50
2023-03-20T11:04:35.530Z,28.00
2023-03-20T11:07:28.612Z,26.00
2023-03-20T11:10:04.487Z,29.50
2023-03-20T11:12:39.278Z,27.00
2023-03-20T11:15:33.636Z,28.00
2023-03-20T11:18:03.730Z,31.00
2023-03-20T11:20:57.766Z,32.00
2023-03-20T11:23:29.149Z,29.00
2023-03-20T11:26:12.175Z,29.00
2023-03-20T11:28:57.892Z,31.00
2023-03-20T11:31:33.833Z,28.00
2023-03-20T11:34:25.047Z,27.00
2023-03-20T11:37:10.217Z,28.25
2023-03-20T11:39:56.365Z,30.00
2023-03-20T11:42:27.006Z,28.00
2023-03-20T11:44:59.207Z,24.00
2023-03-20T11:47:28.753Z,27.50
2023-03-20T11:50:01.602Z,31.00
2023-03-20T11:52:35.285Z,29.00
2023-03-20T11:55:05.803Z,29.00
2023-03-20T11:57:42.864Z,25.75
2023-03-20T12:00:25.652Z,23.00
2023-03-20T12:02:52.910Z,23.00
2023-03-20T12:05:39.117Z,26.50
2023-03-20T12:08:16.018Z,26.75
2023-03-20T12:10:58.073Z,24.25
2023-03-20T12:13:37.655Z,27.75
2023-03-20T12:16:20.027Z,27.25
2023-03-20T12:18:55.558Z,27.75
2023-03-20T12:21:41.339Z,26.00
2023-03-20T12:24:26.555Z,27.50
2023-03-20T12:27:24.149Z,27.50
2023-03-20T12:30:00.128Z,28.00
2023-03-20T12:32:41.620Z,27.00
2023-03-20T12:35:20.804Z,28.00
2023-03-20T12:37:50.433Z,25.50
2023-03-20T12:40:19.039Z,28.00
2023-03-20T12:43:05.511Z,30.00
2023-03-20T12:45:42.693Z,29.00
2023-03-20T12:48:29.044Z,30.00
2023-03-20T12:51:20.154Z,29.00
2023-03-20T12:54:16.485Z,28.25
2023-03-20T12:57:01.170Z,30.00
2023-03-20T12:59:48.342Z,31.00
2023-03-20T13:02:15.824Z,30.00
2023-03-20T13:04:52.684Z,33.00
2023-03-20T13:07:21.883Z,30.00
2023-03-20T13:10:14.536Z,30.50
2023-03-20T13:12:47.171Z,30.00
2023-03-20T13:15:34.231Z,28.00
2023-03-20T13:18:34.409Z,30.50
2023-03-20T13:21:11.681Z,28.25
2023-03-20T13:23:44.707Z,35.00
2023-03-20T13:26:28.292Z,33.50
2023-03-20T13:29:24.711Z,30.75
2023-03-20T13:32:06.788Z,30.00
2023-03-20T13:35:17.599Z,30.25
2023-03-20T13:38:10.388Z,33.50
2023-03-20T13:40:43.445Z,30.00
2023-03-20T13:43:54.507Z,30.00
2023-03-20T13:46:28.425Z,28.00
2023-03-20T13:49:00.732Z,28.00
2023-03-20T13:52:01.963Z,30.00
2023-03-20T13:55:07.311Z,32.00
2023-03-20T13:57:59.471Z,31.00
2023-03-20T14:01:04.125Z,30.00
2023-03-20T14:03:45.108Z,29.00
2023-03-20T14:06:27.624Z,27.00
2023-03-20T14:08:55.732Z,25.00
2023-03-20T14:11:22.505Z,24.00
2023-03-20T14:13:58.189Z,27.00
2023-03-20T14:16:30.602Z,27.00
2023-03-20T14:19:30.435Z,28.50
2023-03-20T14:21:57.666Z,28.00
2023-03-20T14:24:30.253Z,26.25
2023-03-20T14:27:00.509Z,26.50
2023-03-20T14:29:30.139Z,26.00
2023-03-20T14:32:17.494Z,24.00
2023-03-20T14:34:48.778Z,26.50
2023-03-20T14:37:36.441Z,27.00
2023-03-20T14:40:29.843Z,28.00
2023-03-20T14:43:22.484Z,30.00
2023-03-20T14:45:59.850Z,30.00
2023-03-20T14:48:41.639Z,30.00
2023-03-20T14:51:17.685Z,28.00
2023-03-20T14:53:44.611Z,30.50
2023-03-20T14:56:15.499Z,29.75
2023-03-20T14:58:52.491Z,30.00
2023-03-20T15:01:22.209Z,29.00
2023-03-20T15:04:00.381Z,29.50
2023-03-20T15:06:29.196Z,26.50
2023-03-20T15:09:04.863Z,25.00
2023-03-20T15:11:35.061Z,25.25
2023-03-20T15:14:06.869Z,28.50
2023-03-20T15:16:38.543Z,28.00
2023-03-20T15:19:18.738Z,27.00
2023-03-20T15:21:47.773Z,25.00
2023-03-20T15:24:29.061Z,29.00
2023-03-20T15:27:00.358Z,28.50
2023-03-20T15:29:30.073Z,32.00
2023-03-20T15:32:13.835Z,31.50
2023-03-20T15:34:43.177Z,28.00
2023-03-20T15:37:16.089Z,28.50
2023-03-20T15:39:48.976Z,30.25
2023-03-20T15:42:18.908Z,29.50
2023-03-20T15:44:47.708Z,29.00
2023-03-20T15:47:18.180Z,27.25
2023-03-20T15:49:56.824Z,28.75
2023-03-20T15:52:37.227Z,30.00
2023-03-20T15:55:18.067Z,30.00
2023-03-20T15:57:46.934Z,27.00
2023-03-20T16:00:37.202Z,26.00
2023-03-20T16:03:08.030Z,25.00
2023-03-20T16:05:35.756Z,27.00
2023-03-20T16:08:25.434Z,24.00
2023-03-20T16:11:03.783Z,23.75
2023-03-20T16:13:41.120Z,27.00
2023-03-20T16:16:14.272Z,28.00
2023-03-20T16:18:42.322Z,30.25
2023-03-20T16:21:17.047Z,28.75
2023-03-20T16:23:49.954Z,28.00
2023-03-20T16:26:19.816Z,28.00
2023-03-20T16:28:52.624Z,28.00
2023-03-20T16:31:29.025Z,26.00
2023-03-20T16:34:01.146Z,22.00
2023-03-20T16:36:34.669Z,23.00
2023-03-20T16:39:07.822Z,27.25
2023-03-20T16:41:39.731Z,30.75
2023-03-20T16:44:21.861Z,30.00
2023-03-20T16:46:59.522Z,31.00
2023-03-20T16:49:29.408Z,29.00
2023-03-20T16:52:01.702Z,26.00
2023-03-20T16:54:35.403Z,24.00
2023-03-20T16:57:03.556Z,24.75
2023-03-20T16:59:30.912Z,23.00
2023-03-20T17:02:01.322Z,23.00
2023-03-20T17:04:34.092Z,25.50
2023-03-20T17:07:06.551Z,26.00
2023-03-20T17:09:34.083Z,26.50
2023-03-20T17:12:14.034Z,28.00
2023-03-20T17:14:41.071Z,29.00
2023-03-20T17:17:22.726Z,25.00
2023-03-20T17:19:49.858Z,25.00
2023-03-20T17:22:25.075Z,24.25
2023-03-20T17:24:55.618Z,22.50
2023-03-20T17:27:23.312Z,32.25
2023-03-20T17:29:55.603Z,29.00
2023-03-20T17:32:23.201Z,28.00
2023-03-20T17:34:51.043Z,27.50
2023-03-20T17:37:29.839Z,26.00
2023-03-20T17:39:57.662Z,23.00
2023-03-20T17:42:26.073Z,22.25
2023-03-20T17:44:53.547Z,27.25
2023-03-20T17:47:22.882Z,24.25
2023-03-20T17:49:50.907Z,27.50
2023-03-20T17:52:41.926Z,26.00
2023-03-20T17:55:28.719Z,28.00
2023-03-20T17:57:55.749Z,27.25
2023-03-20T18:00:25.140Z,30.00
2023-03-20T18:02:52.192Z,28.50
2023-03-20T18:05:19.480Z,30.00
2023-03-20T18:07:46.862Z,27.50
2023-03-20T18:10:30.236Z,26.00
2023-03-20T18:13:02.880Z,24.00
2023-03-20T18:15:30.270Z,25.00
2023-03-20T18:17:57.357Z,25.50
2023-03-20T18:20:32.838Z,26.00
2023-03-20T18:23:00.470Z,26.00
2023-03-20T18:25:28.455Z,24.00
2023-03-20T18:27:57.894Z,27.50
2023-03-20T18:30:29.444Z,26.00
2023-03-20T18:32:56.493Z,24.00
2023-03-20T18:35:23.596Z,26.50
2023-03-20T18:37:52.189Z,29.75
2023-03-20T18:40:23.335Z,24.25
2023-03-20T18:42:50.444Z,24.00
2023-03-20T18:45:17.554Z,27.50
2023-03-20T18:47:44.623Z,30.75
2023-03-20T18:50:26.909Z,28.00
2023-03-20T18:52:55.854Z,31.00
2023-03-20T18:55:25.110Z,24.50
2023-03-20T18:57:52.444Z,26.50
2023-03-20T19:03:28.522Z,27.75
2023-03-20T19:05:58.005Z,26.50
2023-03-20T19:08:25.390Z,27.75
2023-03-20T19:10:52.398Z,26.00
2023-03-20T19:13:22.998Z,30.75
2023-03-20T19:15:50.060Z,31.50
2023-03-20T19:18:19.526Z,37.50
2023-03-20T19:20:48.906Z,32.25
2023-03-20T19:23:17.812Z,30.00
2023-03-20T19:25:47.404Z,28.00
2023-03-20T19:28:40.680Z,29.00
2023-03-20T19:31:09.416Z,31.00
2023-03-20T19:33:37.732Z,30.00
2023-03-20T19:36:05.975Z,31.00
2023-03-20T19:38:34.418Z,32.50
2023-03-20T19:41:04.640Z,29.25
2023-03-20T19:43:32.218Z,27.00
2023-03-20T19:45:59.756Z,31.00
2023-03-20T19:48:41.904Z,33.00
2023-03-20T19:51:18.405Z,30.75
2023-03-20T19:53:46.322Z,26.75
2023-03-20T19:56:15.197Z,28.50
2023-03-20T19:58:43.336Z,30.00
2023-03-20T20:01:16.802Z,30.00
2023-03-20T20:03:44.981Z,28.00
2023-03-20T20:06:15.447Z,28.50
2023-03-20T20:08:48.324Z,26.00
2023-03-20T20:11:20.471Z,28.75
2023-03-20T20:16:36.480Z,28.50
2023-03-20T20:19:03.855Z,30.00
2023-03-20T20:24:18.303Z,27.00
2023-03-20T20:26:54.777Z,30.50
2023-03-20T20:29:24.552Z,29.50
2023-03-20T20:31:51.696Z,29.00
2023-03-20T20:35:29.995Z,28.00
2023-03-20T20:39:52.568Z,30.00
2023-03-20T20:42:19.699Z,29.50
2023-03-20T20:44:47.361Z,30.00
2023-03-20T20:47:15.257Z,29.00
2023-03-20T20:49:42.781Z,32.00
2023-03-20T20:52:13.125Z,29.50
2023-03-20T20:54:40.485Z,30.50
2023-03-20T20:57:08.128Z,30.00
2023-03-20T20:59:35.073Z,30.00
2023-03-20T21:02:01.959Z,30.00
2023-03-20T21:04:28.940Z,26.75
2023-03-20T21:07:09.243Z,26.00
2023-03-20T21:09:36.809Z,28.25
2023-03-20T21:12:04.313Z,30.25
2023-03-20T21:14:31.282Z,32.00
2023-03-20T21:16:58.760Z,31.00
2023-03-20T21:19:25.806Z,28.00
2023-03-20T21:21:52.631Z,27.00
2023-03-20T21:24:35.038Z,29.50
2023-03-20T21:27:05.827Z,32.00
2023-03-20T21:29:32.740Z,32.00
2023-03-20T21:31:59.942Z,29.00
2023-03-20T21:34:27.170Z,26.00
2023-03-20T21:36:54.024Z,26.00
2023-03-20T21:39:21.191Z,28.00
2023-03-20T21:41:48.208Z,28.00
2023-03-20T21:44:18.050Z,30.00
2023-03-20T21:47:22.778Z,30.50
2023-03-20T22:09:54.712Z,24.25
2023-03-20T22:12:46.383Z,24.00
2023-03-20T22:15:23.316Z,28.50
2023-03-20T22:23:50.738Z,27.00
2023-03-20T22:32:27.943Z,29.50
2023-03-20T22:40:42.049Z,24.00
2023-03-20T22:45:28.906Z,29.50
2023-03-20T22:48:01.902Z,25.25
2023-03-20T22:50:29.173Z,23.00
2023-03-20T22:52:56.107Z,26.50
2023-03-20T22:55:24.662Z,29.75
2023-03-20T22:58:05.901Z,28.00
2023-03-20T23:00:33.761Z,29.00
2023-03-20T23:03:15.310Z,28.75
2023-03-20T23:05:47.024Z,26.00
2023-03-20T23:08:14.157Z,25.00
2023-03-20T23:10:46.566Z,26.00
2023-03-20T23:13:14.772Z,23.25
2023-03-20T23:15:41.572Z,21.00
2023-03-20T23:18:08.509Z,23.75
2023-03-20T23:20:35.706Z,26.00
2023-03-20T23:23:02.691Z,26.00
2023-03-20T23:25:38.667Z,29.00
2023-03-20T23:28:08.453Z,24.50
2023-03-20T23:30:44.205Z,27.25
2023-03-20T23:33:13.439Z,29.00
2023-03-20T23:35:40.299Z,28.00
2023-03-20T23:38:07.221Z,27.00
2023-03-20T23:40:34.181Z,28.00
2023-03-20T23:43:01.140Z,23.50
2023-03-20T23:45:28.236Z,22.00
2023-03-20T23:47:55.270Z,21.00
2023-03-20T23:50:39.818Z,21.00
2023-03-20T23:53:19.805Z,21.75
2023-03-20T23:55:49.591Z,28.25
2023-03-20T23:58:17.085Z,24.00
